sensor_id;sensor_type;location;lat;lon;timestamp;pressure;altitude;pressure_sealevel;temperature;humidity
51261;BME280;61705;46.228;24.812;2024-02-21T00:01:17;98249.28;;;-0.77;100.00
51261;BME280;61705;46.228;24.812;2024-02-21T00:03:44;98248.44;;;-0.76;100.00
51261;BME280;61705;46.228;24.812;2024-02-21T00:06:11;98250.19;;;-0.74;100.00
51261;BME280;61705;46.228;24.812;2024-02-21T00:08:37;98255.41;;;-0.70;100.00
51261;BME280;61705;46.228;24.812;2024-02-21T00:11:04;98246.78;;;-0.68;100.00
51261;BME280;61705;46.228;24.812;2024-02-21T00:13:31;98238.09;;;-0.70;100.00
51261;BME280;61705;46.228;24.812;2024-02-21T00:16:00;98240.75;;;-0.62;100.00
51261;BME280;61705;46.228;24.812;2024-02-21T00:18:26;98230.38;;;-0.62;100.00
51261;BME280;61705;46.228;24.812;2024-02-21T00:20:55;98229.53;;;-0.64;100.00
51261;BME280;61705;46.228;24.812;2024-02-21T00:23:22;98228.66;;;-0.63;100.00
51261;BME280;61705;46.228;24.812;2024-02-21T00:25:49;98230.41;;;-0.61;100.00
51261;BME280;61705;46.228;24.812;2024-02-21T00:28:16;98230.41;;;-0.61;100.00
51261;BME280;61705;46.228;24.812;2024-02-21T00:30:43;98226.06;;;-0.59;100.00
51261;BME280;61705;46.228;24.812;2024-02-21T00:33:10;98226.94;;;-0.61;100.00
51261;BME280;61705;46.228;24.812;2024-02-21T00:35:37;98224.34;;;-0.58;100.00
51261;BME280;61705;46.228;24.812;2024-02-21T00:38:03;98217.44;;;-0.61;100.00
51261;BME280;61705;46.228;24.812;2024-02-21T00:40:30;98220.09;;;-0.50;100.00
51261;BME280;61705;46.228;24.812;2024-02-21T00:42:57;98214.88;;;-0.53;100.00
51261;BME280;61705;46.228;24.812;2024-02-21T00:45:24;98215.78;;;-0.51;100.00
51261;BME280;61705;46.228;24.812;2024-02-21T00:47:50;98214.88;;;-0.55;100.00
51261;BME280;61705;46.228;24.812;2024-02-21T00:50:17;98216.59;;;-0.55;100.00
51261;BME280;61705;46.228;24.812;2024-02-21T00:52:44;98206.31;;;-0.44;100.00
51261;BME280;61705;46.228;24.812;2024-02-21T00:55:11;98216.75;;;-0.34;100.00
51261;BME280;61705;46.228;24.812;2024-02-21T00:57:38;98213.25;;;-0.39;100.00
51261;BME280;61705;46.228;24.812;2024-02-21T01:00:05;98208.06;;;-0.39;100.00
51261;BME280;61705;46.228;24.812;2024-02-21T01:02:31;98213.25;;;-0.39;100.00
51261;BME280;61705;46.228;24.812;2024-02-21T01:04:58;98211.50;;;-0.38;100.00
51261;BME280;61705;46.228;24.812;2024-02-21T01:07:25;98210.72;;;-0.30;100.00
51261;BME280;61705;46.228;24.812;2024-02-21T01:09:51;98206.44;;;-0.20;100.00
51261;BME280;61705;46.228;24.812;2024-02-21T01:12:19;98198.63;;;-0.25;100.00
51261;BME280;61705;46.228;24.812;2024-02-21T01:14:45;98209.88;;;-0.27;100.00
51261;BME280;61705;46.228;24.812;2024-02-21T01:17:12;98209.00;;;-0.26;100.00
51261;BME280;61705;46.228;24.812;2024-02-21T01:19:39;98201.19;;;-0.28;100.00
51261;BME280;61705;46.228;24.812;2024-02-21T01:22:05;98201.25;;;-0.23;100.00
51261;BME280;61705;46.228;24.812;2024-02-21T01:24:32;98197.78;;;-0.17;100.00
51261;BME280;61705;46.228;24.812;2024-02-21T01:26:59;98202.09;;;-0.21;100.00
51261;BME280;61705;46.228;24.812;2024-02-21T01:29:25;98196.88;;;-0.29;100.00
51261;BME280;61705;46.228;24.812;2024-02-21T01:31:52;98193.41;;;-0.28;100.00
51261;BME280;61705;46.228;24.812;2024-02-21T01:34:18;98198.59;;;-0.28;100.00
51261;BME280;61705;46.228;24.812;2024-02-21T01:36:45;98191.69;;;-0.24;100.00
51261;BME280;61705;46.228;24.812;2024-02-21T01:39:12;98191.69;;;-0.27;100.00
51261;BME280;61705;46.228;24.812;2024-02-21T01:41:38;98183.03;;;-0.29;100.00
51261;BME280;61705;46.228;24.812;2024-02-21T01:44:05;98188.22;;;-0.29;100.00
51261;BME280;61705;46.228;24.812;2024-02-21T01:46:31;98187.31;;;-0.31;100.00
51261;BME280;61705;46.228;24.812;2024-02-21T01:48:58;98188.19;;;-0.32;100.00
51261;BME280;61705;46.228;24.812;2024-02-21T01:51:26;98185.63;;;-0.29;100.00
51261;BME280;61705;46.228;24.812;2024-02-21T01:53:53;98190.78;;;-0.34;100.00
51261;BME280;61705;46.228;24.812;2024-02-21T01:56:22;98189.00;;;-0.38;100.00
51261;BME280;61705;46.228;24.812;2024-02-21T01:58:48;98189.84;;;-0.45;100.00
51261;BME280;61705;46.228;24.812;2024-02-21T02:01:16;98191.59;;;-0.42;100.00
51261;BME280;61705;46.228;24.812;2024-02-21T02:03:47;98188.16;;;-0.35;100.00
51261;BME280;61705;46.228;24.812;2024-02-21T02:06:14;98187.31;;;-0.31;100.00
51261;BME280;61705;46.228;24.812;2024-02-21T02:08:41;98187.31;;;-0.34;100.00
51261;BME280;61705;46.228;24.812;2024-02-21T02:11:08;98187.25;;;-0.42;100.00
51261;BME280;61705;46.228;24.812;2024-02-21T02:13:35;98186.44;;;-0.41;100.00
51261;BME280;61705;46.228;24.812;2024-02-21T02:16:02;98186.44;;;-0.41;100.00
51261;BME280;61705;46.228;24.812;2024-02-21T02:18:28;98187.28;;;-0.40;100.00
51261;BME280;61705;46.228;24.812;2024-02-21T02:20:55;98190.72;;;-0.41;100.00
51261;BME280;61705;46.228;24.812;2024-02-21T02:23:24;98186.47;;;-0.32;100.00
51261;BME280;61705;46.228;24.812;2024-02-21T02:25:51;98183.91;;;-0.24;100.00
51261;BME280;61705;46.228;24.812;2024-02-21T02:28:20;98190.88;;;-0.18;100.00
51261;BME280;61705;46.228;24.812;2024-02-21T02:30:47;98187.34;;;-0.30;100.00
51261;BME280;61705;46.228;24.812;2024-02-21T02:33:14;98184.72;;;-0.36;100.00
51261;BME280;61705;46.228;24.812;2024-02-21T02:35:41;98179.50;;;-0.39;100.00
51261;BME280;61705;46.228;24.812;2024-02-21T02:38:08;98177.81;;;-0.28;100.00
51261;BME280;61705;46.228;24.812;2024-02-21T02:40:35;98179.53;;;-0.31;100.00
51261;BME280;61705;46.228;24.812;2024-02-21T02:43:01;98185.66;;;-0.23;100.00
51261;BME280;61705;46.228;24.812;2024-02-21T02:45:28;98183.88;;;-0.30;100.00
51261;BME280;61705;46.228;24.812;2024-02-21T02:47:55;98189.91;;;-0.31;100.00
51261;BME280;61705;46.228;24.812;2024-02-21T02:50:24;98184.75;;;-0.28;100.00
51261;BME280;61705;46.228;24.812;2024-02-21T02:52:50;98191.72;;;-0.19;100.00
51261;BME280;61705;46.228;24.812;2024-02-21T02:55:17;98196.06;;;-0.20;100.00
51261;BME280;61705;46.228;24.812;2024-02-21T02:57:44;98189.16;;;-0.16;100.00
51261;BME280;61705;46.228;24.812;2024-02-21T03:00:11;98190.00;;;-0.19;100.00
51261;BME280;61705;46.228;24.812;2024-02-21T03:02:38;98189.16;;;-0.15;100.00
51261;BME280;61705;46.228;24.812;2024-02-21T03:05:12;98192.63;;;-0.13;100.00
51261;BME280;61705;46.228;24.812;2024-02-21T03:07:41;98193.47;;;-0.17;100.00
51261;BME280;61705;46.228;24.812;2024-02-21T03:10:08;98191.75;;;-0.15;100.00
51261;BME280;61705;46.228;24.812;2024-02-21T03:12:36;98195.22;;;-0.11;100.00
51261;BME280;61705;46.228;24.812;2024-02-21T03:15:02;98201.31;;;-0.09;100.00
51261;BME280;61705;46.228;24.812;2024-02-21T03:17:29;98190.91;;;-0.08;100.00
51261;BME280;61705;46.228;24.812;2024-02-21T03:19:56;98188.31;;;-0.08;100.00
51261;BME280;61705;46.228;24.812;2024-02-21T03:22:23;98192.66;;;-0.07;100.00
51261;BME280;61705;46.228;24.812;2024-02-21T03:24:49;98197.84;;;-0.04;100.00
51261;BME280;61705;46.228;24.812;2024-02-21T03:27:16;98190.06;;;-0.05;100.00
51261;BME280;61705;46.228;24.812;2024-02-21T03:29:43;98200.44;;;-0.04;100.00
51261;BME280;61705;46.228;24.812;2024-02-21T03:32:10;98199.63;;;0.07;100.00
51261;BME280;61705;46.228;24.812;2024-02-21T03:34:36;98199.66;;;0.04;100.00
51261;BME280;61705;46.228;24.812;2024-02-21T03:37:03;98192.69;;;0.01;100.00
51261;BME280;61705;46.228;24.812;2024-02-21T03:39:33;98201.31;;;-0.05;100.00
51261;BME280;61705;46.228;24.812;2024-02-21T03:41:59;98197.88;;;-0.01;100.00
51261;BME280;61705;46.228;24.812;2024-02-21T03:44:30;98201.34;;;0.02;100.00
51261;BME280;61705;46.228;24.812;2024-02-21T03:46:58;98201.34;;;-0.02;100.00
51261;BME280;61705;46.228;24.812;2024-02-21T03:49:25;98196.16;;;-0.02;100.00
51261;BME280;61705;46.228;24.812;2024-02-21T03:51:52;98201.34;;;-0.02;100.00
51261;BME280;61705;46.228;24.812;2024-02-21T03:54:19;98198.78;;;0.00;100.00
51261;BME280;61705;46.228;24.812;2024-02-21T03:56:46;98198.75;;;-0.02;100.00
51261;BME280;61705;46.228;24.812;2024-02-21T03:59:15;98191.84;;;0.02;100.00
51261;BME280;61705;46.228;24.812;2024-02-21T04:01:42;98196.06;;;-0.14;100.00
51261;BME280;61705;46.228;24.812;2024-02-21T04:04:09;98189.19;;;-0.09;100.00
51261;BME280;61705;46.228;24.812;2024-02-21T04:06:36;98195.25;;;-0.05;100.00
51261;BME280;61705;46.228;24.812;2024-02-21T04:09:02;98196.94;;;-0.16;100.00
51261;BME280;61705;46.228;24.812;2024-02-21T04:11:29;98192.63;;;-0.11;100.00
51261;BME280;61705;46.228;24.812;2024-02-21T04:13:56;98200.41;;;-0.11;100.00
51261;BME280;61705;46.228;24.812;2024-02-21T04:16:23;98190.91;;;-0.12;100.00
51261;BME280;61705;46.228;24.812;2024-02-21T04:18:50;98197.81;;;-0.13;100.00
51261;BME280;61705;46.228;24.812;2024-02-21T04:21:17;98203.06;;;-0.05;100.00
51261;BME280;61705;46.228;24.812;2024-02-21T04:23:43;98186.56;;;-0.15;100.00
51261;BME280;61705;46.228;24.812;2024-02-21T04:26:10;98191.75;;;-0.12;100.00
51261;BME280;61705;46.228;24.812;2024-02-21T04:28:36;98192.66;;;-0.10;100.00
51261;BME280;61705;46.228;24.812;2024-02-21T04:31:03;98191.78;;;-0.13;100.00
51261;BME280;61705;46.228;24.812;2024-02-21T04:33:30;98191.81;;;-0.06;100.00
51261;BME280;61705;46.228;24.812;2024-02-21T04:35:56;98184.91;;;0.01;100.00
51261;BME280;61705;46.228;24.812;2024-02-21T04:38:25;98182.31;;;0.04;100.00
51261;BME280;61705;46.228;24.812;2024-02-21T04:40:51;98189.19;;;-0.04;100.00
51261;BME280;61705;46.228;24.812;2024-02-21T04:43:18;98189.19;;;-0.06;100.00
51261;BME280;61705;46.228;24.812;2024-02-21T04:45:45;98186.59;;;-0.06;100.00
51261;BME280;61705;46.228;24.812;2024-02-21T04:48:11;98184.91;;;0.03;100.00
51261;BME280;61705;46.228;24.812;2024-02-21T04:50:38;98190.06;;;-0.01;100.00
51261;BME280;61705;46.228;24.812;2024-02-21T04:53:05;98194.41;;;-0.03;100.00
51261;BME280;61705;46.228;24.812;2024-02-21T04:55:31;98193.53;;;-0.05;100.00
51261;BME280;61705;46.228;24.812;2024-02-21T04:57:58;98187.50;;;-0.02;100.00
51261;BME280;61705;46.228;24.812;2024-02-21T05:00:25;98192.72;;;0.06;100.00
51261;BME280;61705;46.228;24.812;2024-02-21T05:02:51;98189.25;;;0.04;100.00
51261;BME280;61705;46.228;24.812;2024-02-21T05:05:18;98194.41;;;-0.01;100.00
51261;BME280;61705;46.228;24.812;2024-02-21T05:07:45;98190.13;;;0.04;100.00
51261;BME280;61705;46.228;24.812;2024-02-21T05:10:11;98196.16;;;0.02;100.00
51261;BME280;61705;46.228;24.812;2024-02-21T05:12:38;98194.44;;;0.01;100.00
51261;BME280;61705;46.228;24.812;2024-02-21T05:15:05;98198.78;;;0.00;100.00
51261;BME280;61705;46.228;24.812;2024-02-21T05:17:32;98197.06;;;0.08;100.00
51261;BME280;61705;46.228;24.812;2024-02-21T05:19:59;98191.84;;;0.05;100.00
51261;BME280;61705;46.228;24.812;2024-02-21T05:22:26;98191.88;;;0.11;100.00
51261;BME280;61705;46.228;24.812;2024-02-21T05:24:52;98193.63;;;0.11;100.00
51261;BME280;61705;46.228;24.812;2024-02-21T05:27:19;98196.19;;;0.05;100.00
51261;BME280;61705;46.228;24.812;2024-02-21T05:29:46;98195.34;;;0.07;100.00
51261;BME280;61705;46.228;24.812;2024-02-21T05:32:12;98196.22;;;0.15;100.00
51261;BME280;61705;46.228;24.812;2024-02-21T05:34:39;98200.53;;;0.13;100.00
51261;BME280;61705;46.228;24.812;2024-02-21T05:37:06;98193.63;;;0.15;100.00
51261;BME280;61705;46.228;24.812;2024-02-21T05:39:32;98196.22;;;0.12;100.00
51261;BME280;61705;46.228;24.812;2024-02-21T05:41:59;98191.91;;;0.14;100.00
51261;BME280;61705;46.228;24.812;2024-02-21T05:44:26;98188.44;;;0.20;100.00
51261;BME280;61705;46.228;24.812;2024-02-21T05:46:53;98203.16;;;0.19;100.00
51261;BME280;61705;46.228;24.812;2024-02-21T05:49:20;98201.44;;;0.23;100.00
51261;BME280;61705;46.228;24.812;2024-02-21T05:51:47;98203.19;;;0.30;100.00
51261;BME280;61705;46.228;24.812;2024-02-21T05:54:14;98209.31;;;0.43;100.00
51261;BME280;61705;46.228;24.812;2024-02-21T05:56:44;98211.06;;;0.38;100.00
51261;BME280;61705;46.228;24.812;2024-02-21T05:59:11;98202.34;;;0.37;100.00
51261;BME280;61705;46.228;24.812;2024-02-21T06:01:37;98204.94;;;0.37;100.00
51261;BME280;61705;46.228;24.812;2024-02-21T06:04:04;98205.81;;;0.33;100.00
51261;BME280;61705;46.228;24.812;2024-02-21T06:06:31;98203.25;;;0.38;100.00
51261;BME280;61705;46.228;24.812;2024-02-21T06:08:57;98198.94;;;0.54;100.00
51261;BME280;61705;46.228;24.812;2024-02-21T06:11:25;98203.28;;;0.49;100.00
51261;BME280;61705;46.228;24.812;2024-02-21T06:13:52;98201.53;;;0.41;100.00
51261;BME280;61705;46.228;24.812;2024-02-21T06:16:18;98205.88;;;0.49;100.00
51261;BME280;61705;46.228;24.812;2024-02-21T06:18:45;98204.16;;;0.52;100.00
51261;BME280;61705;46.228;24.812;2024-02-21T06:21:11;98205.91;;;0.59;100.00
51261;BME280;61705;46.228;24.812;2024-02-21T06:23:38;98200.66;;;0.55;100.00
51261;BME280;61705;46.228;24.812;2024-02-21T06:26:05;98211.97;;;0.52;100.00
51261;BME280;61705;46.228;24.812;2024-02-21T06:28:32;98209.34;;;0.54;100.00
51261;BME280;61705;46.228;24.812;2024-02-21T06:30:58;98214.56;;;0.60;100.00
51261;BME280;61705;46.228;24.812;2024-02-21T06:33:25;98212.84;;;0.71;100.00
51261;BME280;61705;46.228;24.812;2024-02-21T06:35:52;98224.09;;;0.61;100.00
51261;BME280;61705;46.228;24.812;2024-02-21T06:38:19;98223.19;;;0.51;100.00
51261;BME280;61705;46.228;24.812;2024-02-21T06:40:46;98220.63;;;0.57;100.00
51261;BME280;61705;46.228;24.812;2024-02-21T06:43:17;98225.81;;;0.57;100.00
51261;BME280;61705;46.228;24.812;2024-02-21T06:45:44;98224.97;;;0.63;100.00
51261;BME280;61705;46.228;24.812;2024-02-21T06:48:14;98231.88;;;0.58;100.00
51261;BME280;61705;46.228;24.812;2024-02-21T06:50:41;98220.63;;;0.57;100.00
51261;BME280;61705;46.228;24.812;2024-02-21T06:53:07;98227.59;;;0.63;100.00
51261;BME280;61705;46.228;24.812;2024-02-21T06:55:34;98224.13;;;0.73;100.00
51261;BME280;61705;46.228;24.812;2024-02-21T06:58:01;98222.38;;;0.64;100.00
51261;BME280;61705;46.228;24.812;2024-02-21T07:00:28;98209.41;;;0.74;100.00
51261;BME280;61705;46.228;24.812;2024-02-21T07:02:55;98212.03;;;0.86;100.00
51261;BME280;61705;46.228;24.812;2024-02-21T07:05:22;98216.34;;;0.91;100.00
51261;BME280;61705;46.228;24.812;2024-02-21T07:07:48;98218.13;;;0.89;100.00
51261;BME280;61705;46.228;24.812;2024-02-21T07:10:15;98211.19;;;0.96;100.00
51261;BME280;61705;46.228;24.812;2024-02-21T07:12:42;98221.59;;;1.14;100.00
51261;BME280;61705;46.228;24.812;2024-02-21T07:15:09;98214.66;;;1.18;100.00
51261;BME280;61705;46.228;24.812;2024-02-21T07:17:36;98225.06;;;1.19;100.00
51261;BME280;61705;46.228;24.812;2024-02-21T07:20:03;98221.63;;;1.27;100.00
51261;BME280;61705;46.228;24.812;2024-02-21T07:22:30;98215.53;;;1.25;100.00
51261;BME280;61705;46.228;24.812;2024-02-21T07:24:56;98212.91;;;1.35;100.00
51261;BME280;61705;46.228;24.812;2024-02-21T07:27:23;98214.66;;;1.47;100.00
51261;BME280;61705;46.228;24.812;2024-02-21T07:29:54;98222.44;;;1.59;100.00
51261;BME280;61705;46.228;24.812;2024-02-21T07:32:20;98218.13;;;1.64;100.00
51261;BME280;61705;46.228;24.812;2024-02-21T07:34:47;98212.91;;;1.60;100.00
51261;BME280;61705;46.228;24.812;2024-02-21T07:37:14;98215.50;;;1.68;100.00
51261;BME280;61705;46.228;24.812;2024-02-21T07:39:41;98212.88;;;1.77;100.00
51261;BME280;61705;46.228;24.812;2024-02-21T07:42:07;98208.56;;;1.71;100.00
51261;BME280;61705;46.228;24.812;2024-02-21T07:44:34;98215.50;;;1.81;100.00
51261;BME280;61705;46.228;24.812;2024-02-21T07:47:01;98210.25;;;1.83;100.00
51261;BME280;61705;46.228;24.812;2024-02-21T07:49:29;98206.78;;;1.88;100.00
51261;BME280;61705;46.228;24.812;2024-02-21T07:51:56;98206.78;;;1.85;100.00
51261;BME280;61705;46.228;24.812;2024-02-21T07:54:23;98209.41;;;1.85;100.00
51261;BME280;61705;46.228;24.812;2024-02-21T07:56:50;98205.03;;;1.92;100.00
51261;BME280;61705;46.228;24.812;2024-02-21T07:59:17;98210.28;;;1.81;100.00
51261;BME280;61705;46.228;24.812;2024-02-21T08:01:44;98213.69;;;1.94;100.00
51261;BME280;61705;46.228;24.812;2024-02-21T08:04:11;98211.94;;;1.98;100.00
51261;BME280;61705;46.228;24.812;2024-02-21T08:06:37;98213.72;;;1.96;100.00
51261;BME280;61705;46.228;24.812;2024-02-21T08:09:04;98211.06;;;2.05;100.00
51261;BME280;61705;46.228;24.812;2024-02-21T08:11:31;98215.38;;;2.20;100.00
51261;BME280;61705;46.228;24.812;2024-02-21T08:13:57;98208.34;;;2.40;100.00
51261;BME280;61705;46.228;24.812;2024-02-21T08:16:24;98203.13;;;2.38;100.00
51261;BME280;61705;46.228;24.812;2024-02-21T08:18:52;98204.88;;;2.29;100.00
51261;BME280;61705;46.228;24.812;2024-02-21T08:21:18;98203.94;;;2.45;100.00
51261;BME280;61705;46.228;24.812;2024-02-21T08:23:45;98205.69;;;2.45;100.00
51261;BME280;61705;46.228;24.812;2024-02-21T08:26:12;98203.94;;;2.50;100.00
51261;BME280;61705;46.228;24.812;2024-02-21T08:28:38;98204.75;;;2.61;100.00
51261;BME280;61705;46.228;24.812;2024-02-21T08:31:05;98200.47;;;2.48;100.00
51261;BME280;61705;46.228;24.812;2024-02-21T08:33:32;98203.88;;;2.64;100.00
51261;BME280;61705;46.228;24.812;2024-02-21T08:35:58;98199.44;;;2.73;100.00
51261;BME280;61705;46.228;24.812;2024-02-21T08:38:25;98194.19;;;2.82;100.00
51261;BME280;61705;46.228;24.812;2024-02-21T08:40:52;98195.81;;;2.99;100.00
51261;BME280;61705;46.228;24.812;2024-02-21T08:43:18;98200.16;;;3.00;100.00
51261;BME280;61705;46.228;24.812;2024-02-21T08:45:45;98201.84;;;3.08;100.00
51261;BME280;61705;46.228;24.812;2024-02-21T08:48:11;98201.78;;;3.19;100.00
51261;BME280;61705;46.228;24.812;2024-02-21T08:50:38;98199.81;;;3.46;100.00
51261;BME280;61705;46.228;24.812;2024-02-21T08:53:05;98191.97;;;3.44;100.00
51261;BME280;61705;46.228;24.812;2024-02-21T08:55:32;98190.13;;;3.57;100.00
51261;BME280;61705;46.228;24.812;2024-02-21T08:57:58;98196.16;;;3.62;100.00
51261;BME280;61705;46.228;24.812;2024-02-21T09:00:25;98190.00;;;3.68;100.00
51261;BME280;61705;46.228;24.812;2024-02-21T09:02:54;98195.03;;;3.88;100.00
51261;BME280;61705;46.228;24.812;2024-02-21T09:05:22;98194.28;;;3.78;100.00
51261;BME280;61705;46.228;24.812;2024-02-21T09:07:50;98193.16;;;4.03;100.00
51261;BME280;61705;46.228;24.812;2024-02-21T09:10:17;98194.66;;;4.23;100.00
51261;BME280;61705;46.228;24.812;2024-02-21T09:12:44;98187.63;;;4.28;100.00
51261;BME280;61705;46.228;24.812;2024-02-21T09:15:10;98185.69;;;4.41;100.00
51261;BME280;61705;46.228;24.812;2024-02-21T09:17:37;98185.69;;;4.41;100.00
51261;BME280;61705;46.228;24.812;2024-02-21T09:20:06;98192.84;;;4.26;100.00
51261;BME280;61705;46.228;24.812;2024-02-21T09:22:34;98199.47;;;4.57;100.00
51261;BME280;61705;46.228;24.812;2024-02-21T09:25:01;98188.03;;;4.64;100.00
51261;BME280;61705;46.228;24.812;2024-02-21T09:27:30;98184.50;;;4.66;100.00
51261;BME280;61705;46.228;24.812;2024-02-21T09:29:56;98184.28;;;4.83;100.00
51261;BME280;61705;46.228;24.812;2024-02-21T09:32:23;98179.81;;;4.88;100.00
51261;BME280;61705;46.228;24.812;2024-02-21T09:34:50;98184.88;;;4.99;100.00
51261;BME280;61705;46.228;24.812;2024-02-21T09:37:17;98179.47;;;5.11;100.00
51261;BME280;61705;46.228;24.812;2024-02-21T09:39:43;98183.03;;;5.07;100.00
51261;BME280;61705;46.228;24.812;2024-02-21T09:42:11;98178.78;;;4.98;100.00
51261;BME280;61705;46.228;24.812;2024-02-21T09:44:38;98167.22;;;5.13;100.00
51261;BME280;61705;46.228;24.812;2024-02-21T09:47:30;98171.16;;;5.40;100.00
51261;BME280;61705;46.228;24.812;2024-02-21T09:49:52;98167.59;;;5.43;100.00
51261;BME280;61705;46.228;24.812;2024-02-21T09:52:18;98172.34;;;5.72;100.00
51261;BME280;61705;46.228;24.812;2024-02-21T09:54:45;98173.25;;;5.69;100.00
51261;BME280;61705;46.228;24.812;2024-02-21T09:57:15;98167.34;;;5.57;100.00
51261;BME280;61705;46.228;24.812;2024-02-21T09:59:42;98172.34;;;5.70;100.00
51261;BME280;61705;46.228;24.812;2024-02-21T10:02:10;98162.34;;;5.91;100.00
51261;BME280;61705;46.228;24.812;2024-02-21T10:04:39;98169.88;;;6.12;100.00
51261;BME280;61705;46.228;24.812;2024-02-21T10:07:06;98161.16;;;6.10;100.00
51261;BME280;61705;46.228;24.812;2024-02-21T10:09:33;98159.88;;;6.30;100.00
51261;BME280;61705;46.228;24.812;2024-02-21T10:12:10;98154.66;;;6.28;100.00
51261;BME280;61705;46.228;24.812;2024-02-21T10:14:38;98151.69;;;6.45;100.00
51261;BME280;61705;46.228;24.812;2024-02-21T10:17:05;98144.53;;;6.53;100.00
51261;BME280;61705;46.228;24.812;2024-02-21T10:19:37;98132.34;;;6.49;100.00
51261;BME280;61705;46.228;24.812;2024-02-21T10:22:09;98134.59;;;6.66;100.00
51261;BME280;61705;46.228;24.812;2024-02-21T10:24:37;98138.91;;;6.70;100.00
51261;BME280;61705;46.228;24.812;2024-02-21T10:27:05;98125.31;;;6.88;100.00
51261;BME280;61705;46.228;24.812;2024-02-21T10:29:35;98119.94;;;6.95;100.00
51261;BME280;61705;46.228;24.812;2024-02-21T10:32:11;98120.47;;;7.07;100.00
51261;BME280;61705;46.228;24.812;2024-02-21T10:34:39;98112.88;;;7.31;100.00
51261;BME280;61705;46.228;24.812;2024-02-21T10:37:07;98113.69;;;7.34;100.00
51261;BME280;61705;46.228;24.812;2024-02-21T10:39:42;98114.47;;;7.38;100.00
51261;BME280;61705;46.228;24.812;2024-02-21T10:42:11;98110.25;;;7.32;100.00
51261;BME280;61705;46.228;24.812;2024-02-21T10:44:39;98111.97;;;7.33;100.00
51261;BME280;61705;46.228;24.812;2024-02-21T10:47:10;98097.44;;;7.19;100.00
51261;BME280;61705;46.228;24.812;2024-02-21T10:49:39;98090.28;;;7.24;100.00
51261;BME280;61705;46.228;24.812;2024-02-21T10:52:11;98092.78;;;7.30;100.00
51261;BME280;61705;46.228;24.812;2024-02-21T10:54:55;98083.47;;;7.51;100.00
51261;BME280;61705;46.228;24.812;2024-02-21T10:57:23;98072.16;;;7.47;100.00
51261;BME280;61705;46.228;24.812;2024-02-21T10:59:51;98070.91;;;7.93;100.00
51261;BME280;61705;46.228;24.812;2024-02-21T11:02:19;98061.25;;;7.94;100.00
51261;BME280;61705;46.228;24.812;2024-02-21T11:04:47;98065.44;;;7.99;100.00
51261;BME280;61705;46.228;24.812;2024-02-21T11:07:14;98065.72;;;7.90;100.00
51261;BME280;61705;46.228;24.812;2024-02-21T11:09:50;98063.81;;;7.95;100.00
51261;BME280;61705;46.228;24.812;2024-02-21T11:12:19;98059.00;;;8.10;100.00
51261;BME280;61705;46.228;24.812;2024-02-21T11:14:46;98049.56;;;8.32;100.00
51261;BME280;61705;46.228;24.812;2024-02-21T11:17:17;98047.09;;;8.27;100.00
51261;BME280;61705;46.228;24.812;2024-02-21T11:19:44;98045.22;;;8.31;100.00
51261;BME280;61705;46.228;24.812;2024-02-21T11:22:14;98035.41;;;8.38;100.00
51261;BME280;61705;46.228;24.812;2024-02-21T11:24:43;98044.69;;;8.49;100.00
51261;BME280;61705;46.228;24.812;2024-02-21T11:27:14;98031.25;;;8.57;100.00
51261;BME280;61705;46.228;24.812;2024-02-21T11:32:11;98030.47;;;8.55;100.00
51261;BME280;61705;46.228;24.812;2024-02-21T11:34:38;98007.28;;;8.37;100.00
51261;BME280;61705;46.228;24.812;2024-02-21T11:37:13;98007.28;;;8.38;100.00
51261;BME280;61705;46.228;24.812;2024-02-21T11:39:40;98015.97;;;8.42;100.00
51261;BME280;61705;46.228;24.812;2024-02-21T11:42:07;98006.59;;;8.31;100.00
51261;BME280;61705;46.228;24.812;2024-02-21T11:44:35;98006.09;;;8.48;100.00
51261;BME280;61705;46.228;24.812;2024-02-21T11:47:02;97997.84;;;8.59;100.00
51261;BME280;61705;46.228;24.812;2024-02-21T11:49:29;97995.09;;;8.62;100.00
51261;BME280;61705;46.228;24.812;2024-02-21T11:52:00;97991.75;;;8.57;100.00
51261;BME280;61705;46.228;24.812;2024-02-21T11:54:27;97991.75;;;8.57;100.00
51261;BME280;61705;46.228;24.812;2024-02-21T11:56:54;97982.97;;;8.58;100.00
51261;BME280;61705;46.228;24.812;2024-02-21T11:59:21;97985.69;;;8.55;100.00
51261;BME280;61705;46.228;24.812;2024-02-21T12:01:50;97982.81;;;8.61;100.00
51261;BME280;61705;46.228;24.812;2024-02-21T12:04:19;97973.72;;;8.45;100.00
51261;BME280;61705;46.228;24.812;2024-02-21T12:06:46;97971.53;;;8.58;100.00
51261;BME280;61705;46.228;24.812;2024-02-21T12:09:16;97965.94;;;8.68;100.00
51261;BME280;61705;46.228;24.812;2024-02-21T12:11:43;97963.81;;;8.78;100.00
51261;BME280;61705;46.228;24.812;2024-02-21T12:14:10;97965.56;;;8.79;100.00
51261;BME280;61705;46.228;24.812;2024-02-21T12:16:37;97956.75;;;8.80;100.00
51261;BME280;61705;46.228;24.812;2024-02-21T12:19:04;97962.78;;;8.84;100.00
51261;BME280;61705;46.228;24.812;2024-02-21T12:21:31;97962.03;;;9.05;100.00
51261;BME280;61705;46.228;24.812;2024-02-21T12:23:59;97946.03;;;9.35;100.00
51261;BME280;61705;46.228;24.812;2024-02-21T12:26:26;97944.47;;;9.29;100.00
51261;BME280;61705;46.228;24.812;2024-02-21T12:28:53;97944.94;;;9.17;100.00
51261;BME280;61705;46.228;24.812;2024-02-21T12:31:20;97941.59;;;9.12;100.00
51261;BME280;61705;46.228;24.812;2024-02-21T12:33:47;97939.97;;;9.08;100.00
51261;BME280;61705;46.228;24.812;2024-02-21T12:36:15;97939.13;;;9.07;100.00
51261;BME280;61705;46.228;24.812;2024-02-21T12:38:41;97944.97;;;9.15;100.00
51261;BME280;61705;46.228;24.812;2024-02-21T12:41:08;97937.50;;;9.28;100.00
51261;BME280;61705;46.228;24.812;2024-02-21T12:43:35;97931.91;;;9.37;100.00
51261;BME280;61705;46.228;24.812;2024-02-21T12:46:02;97934.75;;;9.31;100.00
51261;BME280;61705;46.228;24.812;2024-02-21T12:48:28;97933.72;;;9.35;100.00